sensor_id;sensor_type;location;lat;lon;timestamp;P1;durP1;ratioP1;P2;durP2;ratioP2
47784;SDS011;35233;55.686;37.848;2023-09-08T00:01:51;3.30;;;2.30;;
47784;SDS011;35233;55.686;37.848;2023-09-08T00:04:17;4.88;;;2.42;;
47784;SDS011;35233;55.686;37.848;2023-09-08T00:06:44;3.53;;;2.28;;
47784;SDS011;35233;55.686;37.848;2023-09-08T00:09:11;4.25;;;2.20;;
47784;SDS011;35233;55.686;37.848;2023-09-08T00:11:36;4.13;;;2.40;;
47784;SDS011;35233;55.686;37.848;2023-09-08T00:14:02;5.15;;;2.30;;
47784;SDS011;35233;55.686;37.848;2023-09-08T00:16:28;3.80;;;2.38;;
47784;SDS011;35233;55.686;37.848;2023-09-08T00:18:55;3.03;;;2.10;;
47784;SDS011;35233;55.686;37.848;2023-09-08T00:21:23;3.58;;;2.50;;
47784;SDS011;35233;55.686;37.848;2023-09-08T00:23:50;4.50;;;2.38;;
47784;SDS011;35233;55.686;37.848;2023-09-08T00:26:16;3.63;;;2.35;;
47784;SDS011;35233;55.686;37.848;2023-09-08T00:28:41;2.70;;;1.98;;
47784;SDS011;35233;55.686;37.848;2023-09-08T00:31:07;3.08;;;2.03;;
47784;SDS011;35233;55.686;37.848;2023-09-08T00:33:32;3.50;;;1.95;;
47784;SDS011;35233;55.686;37.848;2023-09-08T00:35:58;3.53;;;1.92;;
47784;SDS011;35233;55.686;37.848;2023-09-08T00:38:23;2.72;;;1.95;;
47784;SDS011;35233;55.686;37.848;2023-09-08T00:40:49;3.40;;;2.30;;
47784;SDS011;35233;55.686;37.848;2023-09-08T00:43:14;2.80;;;1.92;;
47784;SDS011;35233;55.686;37.848;2023-09-08T00:45:41;3.13;;;1.90;;
47784;SDS011;35233;55.686;37.848;2023-09-08T00:48:08;2.25;;;1.80;;
47784;SDS011;35233;55.686;37.848;2023-09-08T00:50:35;3.22;;;2.08;;
47784;SDS011;35233;55.686;37.848;2023-09-08T00:53:02;4.05;;;2.30;;
47784;SDS011;35233;55.686;37.848;2023-09-08T00:55:28;2.90;;;2.13;;
47784;SDS011;35233;55.686;37.848;2023-09-08T00:57:55;2.33;;;1.88;;
47784;SDS011;35233;55.686;37.848;2023-09-08T01:00:21;3.35;;;2.10;;
47784;SDS011;35233;55.686;37.848;2023-09-08T01:02:47;3.47;;;2.20;;
47784;SDS011;35233;55.686;37.848;2023-09-08T01:05:13;2.28;;;1.85;;
47784;SDS011;35233;55.686;37.848;2023-09-08T01:07:39;2.92;;;2.05;;
47784;SDS011;35233;55.686;37.848;2023-09-08T01:10:06;3.83;;;2.42;;
47784;SDS011;35233;55.686;37.848;2023-09-08T01:12:32;3.25;;;2.08;;
47784;SDS011;35233;55.686;37.848;2023-09-08T01:15:01;2.97;;;2.25;;
47784;SDS011;35233;55.686;37.848;2023-09-08T01:17:27;1.90;;;1.73;;
47784;SDS011;35233;55.686;37.848;2023-09-08T01:19:55;3.03;;;1.88;;
47784;SDS011;35233;55.686;37.848;2023-09-08T01:27:46;2.85;;;1.80;;
47784;SDS011;35233;55.686;37.848;2023-09-08T01:30:14;2.17;;;1.60;;
47784;SDS011;35233;55.686;37.848;2023-09-08T01:32:41;1.77;;;1.63;;
47784;SDS011;35233;55.686;37.848;2023-09-08T01:35:09;2.38;;;1.95;;
47784;SDS011;35233;55.686;37.848;2023-09-08T01:37:38;1.73;;;1.63;;
47784;SDS011;35233;55.686;37.848;2023-09-08T01:40:05;1.92;;;1.70;;
47784;SDS011;35233;55.686;37.848;2023-09-08T01:42:31;2.13;;;1.75;;
47784;SDS011;35233;55.686;37.848;2023-09-08T01:44:56;1.98;;;1.70;;
47784;SDS011;35233;55.686;37.848;2023-09-08T01:47:22;2.33;;;1.75;;
47784;SDS011;35233;55.686;37.848;2023-09-08T01:49:47;2.22;;;1.73;;
47784;SDS011;35233;55.686;37.848;2023-09-08T01:52:13;3.90;;;1.77;;
47784;SDS011;35233;55.686;37.848;2023-09-08T01:54:38;3.53;;;1.80;;
47784;SDS011;35233;55.686;37.848;2023-09-08T01:57:04;3.45;;;1.80;;
47784;SDS011;35233;55.686;37.848;2023-09-08T01:59:29;3.03;;;2.05;;
47784;SDS011;35233;55.686;37.848;2023-09-08T02:01:55;2.65;;;1.90;;
47784;SDS011;35233;55.686;37.848;2023-09-08T02:04:20;2.65;;;1.73;;
47784;SDS011;35233;55.686;37.848;2023-09-08T02:06:46;2.95;;;1.83;;
47784;SDS011;35233;55.686;37.848;2023-09-08T02:09:13;2.40;;;1.85;;
47784;SDS011;35233;55.686;37.848;2023-09-08T02:11:39;2.90;;;1.98;;
47784;SDS011;35233;55.686;37.848;2023-09-08T02:14:05;2.70;;;1.70;;
47784;SDS011;35233;55.686;37.848;2023-09-08T02:16:30;2.58;;;1.90;;
47784;SDS011;35233;55.686;37.848;2023-09-08T02:18:55;1.95;;;1.50;;
47784;SDS011;35233;55.686;37.848;2023-09-08T02:21:21;1.75;;;1.50;;
47784;SDS011;35233;55.686;37.848;2023-09-08T02:23:47;2.97;;;2.10;;
47784;SDS011;35233;55.686;37.848;2023-09-08T02:26:12;1.92;;;1.52;;
47784;SDS011;35233;55.686;37.848;2023-09-08T02:28:38;2.80;;;1.70;;
47784;SDS011;35233;55.686;37.848;2023-09-08T02:31:03;2.92;;;1.80;;
47784;SDS011;35233;55.686;37.848;2023-09-08T02:33:29;2.60;;;1.90;;
47784;SDS011;35233;55.686;37.848;2023-09-08T02:35:54;2.10;;;1.85;;
47784;SDS011;35233;55.686;37.848;2023-09-08T02:38:25;2.03;;;1.70;;
47784;SDS011;35233;55.686;37.848;2023-09-08T02:40:51;2.15;;;1.70;;
47784;SDS011;35233;55.686;37.848;2023-09-08T02:43:16;2.03;;;1.70;;
47784;SDS011;35233;55.686;37.848;2023-09-08T02:45:42;3.13;;;2.25;;
47784;SDS011;35233;55.686;37.848;2023-09-08T02:48:07;2.25;;;1.70;;
47784;SDS011;35233;55.686;37.848;2023-09-08T02:50:33;2.20;;;1.80;;
47784;SDS011;35233;55.686;37.848;2023-09-08T02:52:58;2.80;;;1.90;;
47784;SDS011;35233;55.686;37.848;2023-09-08T02:55:24;2.70;;;1.80;;
47784;SDS011;35233;55.686;37.848;2023-09-08T02:57:49;2.53;;;1.65;;
47784;SDS011;35233;55.686;37.848;2023-09-08T03:00:15;2.97;;;1.92;;
47784;SDS011;35233;55.686;37.848;2023-09-08T03:02:40;2.42;;;1.73;;
47784;SDS011;35233;55.686;37.848;2023-09-08T03:05:06;3.53;;;1.90;;
47784;SDS011;35233;55.686;37.848;2023-09-08T03:07:32;2.40;;;1.77;;
47784;SDS011;35233;55.686;37.848;2023-09-08T03:09:58;1.90;;;1.70;;
47784;SDS011;35233;55.686;37.848;2023-09-08T03:12:24;2.58;;;1.90;;
47784;SDS011;35233;55.686;37.848;2023-09-08T03:14:50;2.60;;;1.73;;
47784;SDS011;35233;55.686;37.848;2023-09-08T03:17:15;2.70;;;1.63;;
47784;SDS011;35233;55.686;37.848;2023-09-08T03:19:42;4.25;;;2.20;;
47784;SDS011;35233;55.686;37.848;2023-09-08T03:22:10;2.13;;;1.70;;
47784;SDS011;35233;55.686;37.848;2023-09-08T03:24:35;2.92;;;1.65;;
47784;SDS011;35233;55.686;37.848;2023-09-08T03:27:01;2.55;;;1.90;;
47784;SDS011;35233;55.686;37.848;2023-09-08T03:29:26;2.38;;;1.70;;
47784;SDS011;35233;55.686;37.848;2023-09-08T03:31:52;3.33;;;1.80;;
47784;SDS011;35233;55.686;37.848;2023-09-08T03:34:17;2.30;;;1.67;;
47784;SDS011;35233;55.686;37.848;2023-09-08T03:36:45;2.80;;;2.00;;
47784;SDS011;35233;55.686;37.848;2023-09-08T03:39:11;2.67;;;1.50;;
47784;SDS011;35233;55.686;37.848;2023-09-08T03:41:36;2.45;;;1.50;;
47784;SDS011;35233;55.686;37.848;2023-09-08T03:44:02;2.10;;;1.63;;
47784;SDS011;35233;55.686;37.848;2023-09-08T03:46:28;2.42;;;1.63;;
47784;SDS011;35233;55.686;37.848;2023-09-08T03:48:53;2.63;;;1.77;;
47784;SDS011;35233;55.686;37.848;2023-09-08T03:51:23;1.77;;;1.55;;
47784;SDS011;35233;55.686;37.848;2023-09-08T03:53:49;2.58;;;1.73;;
47784;SDS011;35233;55.686;37.848;2023-09-08T03:56:14;2.13;;;1.70;;
47784;SDS011;35233;55.686;37.848;2023-09-08T03:58:40;2.55;;;1.70;;
47784;SDS011;35233;55.686;37.848;2023-09-08T04:01:05;2.47;;;1.80;;
47784;SDS011;35233;55.686;37.848;2023-09-08T04:03:31;2.55;;;1.80;;
47784;SDS011;35233;55.686;37.848;2023-09-08T04:05:56;2.88;;;1.85;;
47784;SDS011;35233;55.686;37.848;2023-09-08T04:08:22;2.78;;;1.80;;
47784;SDS011;35233;55.686;37.848;2023-09-08T04:10:47;2.17;;;1.80;;
47784;SDS011;35233;55.686;37.848;2023-09-08T04:13:13;2.42;;;1.67;;
47784;SDS011;35233;55.686;37.848;2023-09-08T04:15:38;2.33;;;1.70;;
47784;SDS011;35233;55.686;37.848;2023-09-08T04:18:04;2.20;;;1.70;;
47784;SDS011;35233;55.686;37.848;2023-09-08T04:20:29;2.78;;;1.90;;
47784;SDS011;35233;55.686;37.848;2023-09-08T04:22:55;2.28;;;1.52;;
47784;SDS011;35233;55.686;37.848;2023-09-08T04:25:21;2.13;;;1.58;;
47784;SDS011;35233;55.686;37.848;2023-09-08T04:27:46;2.85;;;1.67;;
47784;SDS011;35233;55.686;37.848;2023-09-08T04:30:12;5.28;;;2.97;;
47784;SDS011;35233;55.686;37.848;2023-09-08T04:32:38;6.70;;;3.47;;
47784;SDS011;35233;55.686;37.848;2023-09-08T04:35:04;9.82;;;6.07;;
47784;SDS011;35233;55.686;37.848;2023-09-08T04:40:20;13.20;;;7.05;;
47784;SDS011;35233;55.686;37.848;2023-09-08T04:42:46;10.40;;;6.50;;
47784;SDS011;35233;55.686;37.848;2023-09-08T04:45:11;13.55;;;9.02;;
47784;SDS011;35233;55.686;37.848;2023-09-08T04:47:38;20.52;;;13.55;;
47784;SDS011;35233;55.686;37.848;2023-09-08T04:50:04;20.45;;;12.68;;
47784;SDS011;35233;55.686;37.848;2023-09-08T04:52:30;20.42;;;12.35;;
47784;SDS011;35233;55.686;37.848;2023-09-08T04:54:56;17.98;;;11.60;;
47784;SDS011;35233;55.686;37.848;2023-09-08T04:57:21;17.35;;;12.05;;
47784;SDS011;35233;55.686;37.848;2023-09-08T04:59:46;19.20;;;13.52;;
47784;SDS011;35233;55.686;37.848;2023-09-08T05:02:12;18.92;;;13.05;;
47784;SDS011;35233;55.686;37.848;2023-09-08T05:04:37;32.38;;;13.88;;
47784;SDS011;35233;55.686;37.848;2023-09-08T05:07:03;21.55;;;13.38;;
47784;SDS011;35233;55.686;37.848;2023-09-08T05:09:29;25.38;;;16.17;;
47784;SDS011;35233;55.686;37.848;2023-09-08T05:11:54;32.08;;;21.80;;
47784;SDS011;35233;55.686;37.848;2023-09-08T05:14:20;36.08;;;22.77;;
47784;SDS011;35233;55.686;37.848;2023-09-08T05:16:45;33.47;;;23.80;;
47784;SDS011;35233;55.686;37.848;2023-09-08T05:19:12;32.47;;;22.80;;
47784;SDS011;35233;55.686;37.848;2023-09-08T05:21:38;28.10;;;20.52;;
47784;SDS011;35233;55.686;37.848;2023-09-08T05:24:05;28.77;;;19.23;;
47784;SDS011;35233;55.686;37.848;2023-09-08T05:26:31;23.02;;;16.05;;
47784;SDS011;35233;55.686;37.848;2023-09-08T05:28:57;23.45;;;16.75;;
47784;SDS011;35233;55.686;37.848;2023-09-08T05:31:22;24.23;;;17.05;;
47784;SDS011;35233;55.686;37.848;2023-09-08T05:33:48;24.38;;;15.57;;
47784;SDS011;35233;55.686;37.848;2023-09-08T05:36:13;20.58;;;14.30;;
47784;SDS011;35233;55.686;37.848;2023-09-08T05:38:39;19.08;;;13.45;;
47784;SDS011;35233;55.686;37.848;2023-09-08T05:41:04;21.63;;;14.73;;
47784;SDS011;35233;55.686;37.848;2023-09-08T05:43:30;23.25;;;14.65;;
47784;SDS011;35233;55.686;37.848;2023-09-08T05:45:55;19.98;;;14.52;;
47784;SDS011;35233;55.686;37.848;2023-09-08T05:48:21;20.73;;;14.57;;
47784;SDS011;35233;55.686;37.848;2023-09-08T05:50:46;21.27;;;14.55;;
47784;SDS011;35233;55.686;37.848;2023-09-08T05:53:12;26.25;;;17.63;;
47784;SDS011;35233;55.686;37.848;2023-09-08T05:55:37;21.77;;;15.73;;
47784;SDS011;35233;55.686;37.848;2023-09-08T05:58:03;21.92;;;16.15;;
47784;SDS011;35233;55.686;37.848;2023-09-08T06:00:28;22.65;;;16.60;;
47784;SDS011;35233;55.686;37.848;2023-09-08T06:02:54;23.42;;;16.33;;
47784;SDS011;35233;55.686;37.848;2023-09-08T06:05:20;31.05;;;22.33;;
47784;SDS011;35233;55.686;37.848;2023-09-08T06:07:45;35.55;;;28.63;;
47784;SDS011;35233;55.686;37.848;2023-09-08T06:10:11;34.13;;;26.90;;
47784;SDS011;35233;55.686;37.848;2023-09-08T06:12:36;32.65;;;25.63;;
47784;SDS011;35233;55.686;37.848;2023-09-08T06:15:02;30.00;;;23.05;;
47784;SDS011;35233;55.686;37.848;2023-09-08T06:17:28;28.42;;;22.65;;
47784;SDS011;35233;55.686;37.848;2023-09-08T06:19:54;38.60;;;30.55;;
47784;SDS011;35233;55.686;37.848;2023-09-08T06:22:19;39.13;;;32.25;;
47784;SDS011;35233;55.686;37.848;2023-09-08T06:24:45;36.83;;;30.77;;
47784;SDS011;35233;55.686;37.848;2023-09-08T06:27:10;53.03;;;42.45;;
47784;SDS011;35233;55.686;37.848;2023-09-08T06:29:36;46.17;;;37.15;;
47784;SDS011;35233;55.686;37.848;2023-09-08T06:32:03;39.88;;;32.15;;
47784;SDS011;35233;55.686;37.848;2023-09-08T06:34:29;43.13;;;33.50;;
47784;SDS011;35233;55.686;37.848;2023-09-08T06:36:54;38.80;;;29.95;;
47784;SDS011;35233;55.686;37.848;2023-09-08T06:39:20;36.28;;;29.15;;
47784;SDS011;35233;55.686;37.848;2023-09-08T06:41:46;36.90;;;28.70;;
47784;SDS011;35233;55.686;37.848;2023-09-08T06:44:11;32.53;;;25.80;;
47784;SDS011;35233;55.686;37.848;2023-09-08T06:46:37;33.97;;;25.80;;
47784;SDS011;35233;55.686;37.848;2023-09-08T06:49:02;33.45;;;25.83;;
47784;SDS011;35233;55.686;37.848;2023-09-08T06:51:28;37.83;;;29.67;;
47784;SDS011;35233;55.686;37.848;2023-09-08T06:53:54;33.65;;;28.05;;
47784;SDS011;35233;55.686;37.848;2023-09-08T06:56:25;35.00;;;27.55;;
47784;SDS011;35233;55.686;37.848;2023-09-08T06:58:50;34.40;;;25.73;;
47784;SDS011;35233;55.686;37.848;2023-09-08T07:01:17;33.53;;;25.77;;
47784;SDS011;35233;55.686;37.848;2023-09-08T07:03:42;31.27;;;24.60;;
47784;SDS011;35233;55.686;37.848;2023-09-08T07:06:08;28.33;;;23.15;;
47784;SDS011;35233;55.686;37.848;2023-09-08T07:08:34;35.53;;;27.30;;
47784;SDS011;35233;55.686;37.848;2023-09-08T07:10:59;36.90;;;26.85;;
47784;SDS011;35233;55.686;37.848;2023-09-08T07:13:25;32.85;;;25.52;;
47784;SDS011;35233;55.686;37.848;2023-09-08T07:15:50;33.15;;;26.27;;
47784;SDS011;35233;55.686;37.848;2023-09-08T07:18:16;35.58;;;27.17;;
47784;SDS011;35233;55.686;37.848;2023-09-08T07:20:41;30.40;;;23.83;;
47784;SDS011;35233;55.686;37.848;2023-09-08T07:23:13;33.47;;;25.00;;
47784;SDS011;35233;55.686;37.848;2023-09-08T07:25:39;44.42;;;35.28;;
47784;SDS011;35233;55.686;37.848;2023-09-08T07:28:05;48.75;;;40.08;;
47784;SDS011;35233;55.686;37.848;2023-09-08T07:30:31;49.90;;;37.72;;
47784;SDS011;35233;55.686;37.848;2023-09-08T07:32:57;39.17;;;31.30;;
47784;SDS011;35233;55.686;37.848;2023-09-08T07:35:23;37.17;;;30.15;;
47784;SDS011;35233;55.686;37.848;2023-09-08T07:37:49;36.45;;;29.20;;
47784;SDS011;35233;55.686;37.848;2023-09-08T07:40:15;36.45;;;28.98;;
47784;SDS011;35233;55.686;37.848;2023-09-08T07:42:40;34.22;;;27.98;;
47784;SDS011;35233;55.686;37.848;2023-09-08T07:45:06;36.67;;;27.42;;
47784;SDS011;35233;55.686;37.848;2023-09-08T07:47:35;34.08;;;27.75;;
47784;SDS011;35233;55.686;37.848;2023-09-08T07:50:17;33.97;;;27.25;;
47784;SDS011;35233;55.686;37.848;2023-09-08T07:52:47;31.95;;;26.00;;
47784;SDS011;35233;55.686;37.848;2023-09-08T07:55:14;30.85;;;25.52;;
47784;SDS011;35233;55.686;37.848;2023-09-08T07:57:43;30.88;;;24.83;;
47784;SDS011;35233;55.686;37.848;2023-09-08T08:00:11;28.55;;;24.00;;
47784;SDS011;35233;55.686;37.848;2023-09-08T08:02:41;31.05;;;24.88;;
47784;SDS011;35233;55.686;37.848;2023-09-08T08:05:09;31.75;;;24.95;;
47784;SDS011;35233;55.686;37.848;2023-09-08T08:07:36;29.38;;;24.40;;
47784;SDS011;35233;55.686;37.848;2023-09-08T08:10:03;30.20;;;23.95;;
47784;SDS011;35233;55.686;37.848;2023-09-08T08:12:28;30.77;;;25.13;;
47784;SDS011;35233;55.686;37.848;2023-09-08T08:14:54;31.45;;;25.45;;
47784;SDS011;35233;55.686;37.848;2023-09-08T08:17:19;28.75;;;24.25;;
47784;SDS011;35233;55.686;37.848;2023-09-08T08:19:45;33.63;;;26.02;;
47784;SDS011;35233;55.686;37.848;2023-09-08T08:22:11;28.90;;;24.00;;
47784;SDS011;35233;55.686;37.848;2023-09-08T08:24:36;29.48;;;23.67;;
47784;SDS011;35233;55.686;37.848;2023-09-08T08:27:02;32.88;;;24.70;;
47784;SDS011;35233;55.686;37.848;2023-09-08T08:29:28;32.60;;;25.88;;
47784;SDS011;35233;55.686;37.848;2023-09-08T08:31:54;38.03;;;29.70;;
47784;SDS011;35233;55.686;37.848;2023-09-08T08:34:19;39.17;;;31.38;;
47784;SDS011;35233;55.686;37.848;2023-09-08T08:36:45;36.67;;;29.42;;
47784;SDS011;35233;55.686;37.848;2023-09-08T08:39:10;37.00;;;28.40;;
47784;SDS011;35233;55.686;37.848;2023-09-08T08:41:36;34.97;;;26.77;;
47784;SDS011;35233;55.686;37.848;2023-09-08T08:44:07;35.03;;;27.80;;
47784;SDS011;35233;55.686;37.848;2023-09-08T08:46:33;31.75;;;25.77;;
47784;SDS011;35233;55.686;37.848;2023-09-08T08:49:02;32.63;;;25.05;;
47784;SDS011;35233;55.686;37.848;2023-09-08T08:51:30;28.48;;;24.08;;
47784;SDS011;35233;55.686;37.848;2023-09-08T08:53:56;28.58;;;23.48;;
47784;SDS011;35233;55.686;37.848;2023-09-08T08:56:22;29.92;;;22.80;;
47784;SDS011;35233;55.686;37.848;2023-09-08T08:58:49;29.55;;;22.77;;
47784;SDS011;35233;55.686;37.848;2023-09-08T09:01:18;27.75;;;22.45;;
47784;SDS011;35233;55.686;37.848;2023-09-08T09:03:48;25.90;;;21.60;;
47784;SDS011;35233;55.686;37.848;2023-09-08T09:06:15;25.98;;;21.35;;
47784;SDS011;35233;55.686;37.848;2023-09-08T09:08:42;28.48;;;21.92;;
47784;SDS011;35233;55.686;37.848;2023-09-08T09:11:09;27.05;;;22.77;;
47784;SDS011;35233;55.686;37.848;2023-09-08T09:13:35;29.75;;;24.00;;
47784;SDS011;35233;55.686;37.848;2023-09-08T09:16:00;32.53;;;24.20;;
47784;SDS011;35233;55.686;37.848;2023-09-08T09:18:28;29.00;;;23.77;;
47784;SDS011;35233;55.686;37.848;2023-09-08T09:20:58;30.67;;;26.25;;
47784;SDS011;35233;55.686;37.848;2023-09-08T09:23:31;39.67;;;32.75;;
47784;SDS011;35233;55.686;37.848;2023-09-08T09:25:58;38.28;;;32.05;;
47784;SDS011;35233;55.686;37.848;2023-09-08T09:28:25;39.88;;;32.95;;
47784;SDS011;35233;55.686;37.848;2023-09-08T09:30:53;38.75;;;31.27;;
47784;SDS011;35233;55.686;37.848;2023-09-08T09:33:21;37.58;;;28.98;;
47784;SDS011;35233;55.686;37.848;2023-09-08T09:35:48;37.22;;;28.77;;
47784;SDS011;35233;55.686;37.848;2023-09-08T09:38:15;35.35;;;28.70;;
47784;SDS011;35233;55.686;37.848;2023-09-08T09:40:45;32.97;;;26.98;;
47784;SDS011;35233;55.686;37.848;2023-09-08T09:43:11;34.80;;;27.80;;
47784;SDS011;35233;55.686;37.848;2023-09-08T09:45:38;34.63;;;27.20;;
47784;SDS011;35233;55.686;37.848;2023-09-08T09:48:05;34.35;;;26.70;;
47784;SDS011;35233;55.686;37.848;2023-09-08T09:50:33;32.65;;;26.35;;
47784;SDS011;35233;55.686;37.848;2023-09-08T09:53:01;35.55;;;28.85;;
47784;SDS011;35233;55.686;37.848;2023-09-08T09:55:28;32.03;;;27.50;;
47784;SDS011;35233;55.686;37.848;2023-09-08T09:57:56;36.70;;;29.38;;
47784;SDS011;35233;55.686;37.848;2023-09-08T10:00:28;32.08;;;26.67;;
47784;SDS011;35233;55.686;37.848;2023-09-08T10:02:55;34.75;;;27.25;;
47784;SDS011;35233;55.686;37.848;2023-09-08T10:05:21;32.72;;;27.08;;
47784;SDS011;35233;55.686;37.848;2023-09-08T10:07:48;30.40;;;25.35;;
47784;SDS011;35233;55.686;37.848;2023-09-08T10:10:15;29.83;;;24.88;;
47784;SDS011;35233;55.686;37.848;2023-09-08T10:12:45;29.33;;;23.83;;
47784;SDS011;35233;55.686;37.848;2023-09-08T10:15:15;28.52;;;24.15;;
47784;SDS011;35233;55.686;37.848;2023-09-08T10:17:44;28.98;;;23.88;;
47784;SDS011;35233;55.686;37.848;2023-09-08T10:20:12;29.33;;;23.85;;
47784;SDS011;35233;55.686;37.848;2023-09-08T10:22:41;27.35;;;22.23;;
47784;SDS011;35233;55.686;37.848;2023-09-08T10:25:10;26.10;;;21.95;;
47784;SDS011;35233;55.686;37.848;2023-09-08T10:27:38;27.15;;;22.05;;
47784;SDS011;35233;55.686;37.848;2023-09-08T10:30:05;25.88;;;21.85;;
47784;SDS011;35233;55.686;37.848;2023-09-08T10:32:32;26.25;;;22.02;;
47784;SDS011;35233;55.686;37.848;2023-09-08T10:35:00;26.08;;;20.63;;
47784;SDS011;35233;55.686;37.848;2023-09-08T10:37:27;25.48;;;20.48;;
47784;SDS011;35233;55.686;37.848;2023-09-08T10:39:54;24.95;;;19.85;;
47784;SDS011;35233;55.686;37.848;2023-09-08T10:42:21;23.38;;;19.17;;
47784;SDS011;35233;55.686;37.848;2023-09-08T10:47:23;23.75;;;18.95;;
47784;SDS011;35233;55.686;37.848;2023-09-08T10:49:50;23.10;;;18.65;;
47784;SDS011;35233;55.686;37.848;2023-09-08T10:52:20;21.13;;;17.98;;
47784;SDS011;35233;55.686;37.848;2023-09-08T10:54:47;21.25;;;17.40;;
47784;SDS011;35233;55.686;37.848;2023-09-08T10:57:18;21.77;;;17.65;;
47784;SDS011;35233;55.686;37.848;2023-09-08T10:59:55;21.75;;;17.92;;
47784;SDS011;35233;55.686;37.848;2023-09-08T11:05:03;23.17;;;18.23;;
47784;SDS011;35233;55.686;37.848;2023-09-08T11:07:38;25.00;;;20.02;;
47784;SDS011;35233;55.686;37.848;2023-09-08T11:10:05;25.58;;;20.77;;
47784;SDS011;35233;55.686;37.848;2023-09-08T11:12:32;23.23;;;19.67;;
47784;SDS011;35233;55.686;37.848;2023-09-08T11:14:59;23.23;;;19.98;;
47784;SDS011;35233;55.686;37.848;2023-09-08T11:17:29;25.08;;;19.80;;
47784;SDS011;35233;55.686;37.848;2023-09-08T11:19:55;27.35;;;20.48;;
47784;SDS011;35233;55.686;37.848;2023-09-08T11:22:22;24.80;;;20.27;;
47784;SDS011;35233;55.686;37.848;2023-09-08T11:24:49;26.10;;;20.90;;
47784;SDS011;35233;55.686;37.848;2023-09-08T11:27:17;24.98;;;20.80;;
47784;SDS011;35233;55.686;37.848;2023-09-08T11:29:43;26.75;;;20.40;;
47784;SDS011;35233;55.686;37.848;2023-09-08T11:32:09;24.48;;;19.50;;
47784;SDS011;35233;55.686;37.848;2023-09-08T11:34:36;24.70;;;20.27;;
47784;SDS011;35233;55.686;37.848;2023-09-08T11:37:14;26.10;;;20.40;;
47784;SDS011;35233;55.686;37.848;2023-09-08T11:39:44;23.95;;;18.15;;
47784;SDS011;35233;55.686;37.848;2023-09-08T11:42:14;26.27;;;20.63;;
47784;SDS011;35233;55.686;37.848;2023-09-08T11:44:41;24.23;;;18.70;;
47784;SDS011;35233;55.686;37.848;2023-09-08T11:47:08;25.27;;;18.52;;
47784;SDS011;35233;55.686;37.848;2023-09-08T11:49:37;23.80;;;18.48;;
47784;SDS011;35233;55.686;37.848;2023-09-08T11:52:05;24.45;;;18.58;;
47784;SDS011;35233;55.686;37.848;2023-09-08T11:54:31;22.30;;;17.88;;
47784;SDS011;35233;55.686;37.848;2023-09-08T11:56:59;21.27;;;18.00;;
47784;SDS011;35233;55.686;37.848;2023-09-08T11:59:26;23.95;;;18.45;;
47784;SDS011;35233;55.686;37.848;2023-09-08T12:01:53;24.27;;;18.00;;
47784;SDS011;35233;55.686;37.848;2023-09-08T12:04:19;23.42;;;18.20;;
47784;SDS011;35233;55.686;37.848;2023-09-08T12:06:46;24.90;;;18.90;;
47784;SDS011;35233;55.686;37.848;2023-09-08T12:09:16;24.55;;;17.40;;
47784;SDS011;35233;55.686;37.848;2023-09-08T12:11:41;21.92;;;17.90;;
47784;SDS011;35233;55.686;37.848;2023-09-08T12:14:08;22.83;;;18.23;;
47784;SDS011;35233;55.686;37.848;2023-09-08T12:16:37;30.67;;;19.30;;
47784;SDS011;35233;55.686;37.848;2023-09-08T12:19:03;32.10;;;19.35;;
47784;SDS011;35233;55.686;37.848;2023-09-08T12:21:29;32.38;;;18.58;;
47784;SDS011;35233;55.686;37.848;2023-09-08T12:23:56;34.88;;;19.95;;
47784;SDS011;35233;55.686;37.848;2023-09-08T12:26:24;85.07;;;37.58;;
47784;SDS011;35233;55.686;37.848;2023-09-08T12:28:50;74.75;;;33.10;;
47784;SDS011;35233;55.686;37.848;2023-09-08T12:31:16;62.00;;;31.23;;
47784;SDS011;35233;55.686;37.848;2023-09-08T12:33:43;50.08;;;27.05;;
47784;SDS011;35233;55.686;37.848;2023-09-08T12:36:13;57.70;;;26.92;;
47784;SDS011;35233;55.686;37.848;2023-09-08T12:38:52;47.40;;;26.20;;
47784;SDS011;35233;55.686;37.848;2023-09-08T12:41:18;46.88;;;26.55;;
47784;SDS011;35233;55.686;37.848;2023-09-08T12:43:44;40.83;;;24.70;;
47784;SDS011;35233;55.686;37.848;2023-09-08T12:46:11;48.83;;;25.17;;
47784;SDS011;35233;55.686;37.848;2023-09-08T12:48:36;45.55;;;24.45;;
47784;SDS011;35233;55.686;37.848;2023-09-08T12:51:02;40.50;;;22.65;;
47784;SDS011;35233;55.686;37.848;2023-09-08T12:53:34;38.80;;;22.60;;
47784;SDS011;35233;55.686;37.848;2023-09-08T12:56:02;36.75;;;22.80;;
47784;SDS011;35233;55.686;37.848;2023-09-08T12:58:28;38.65;;;21.67;;
47784;SDS011;35233;55.686;37.848;2023-09-08T13:00:54;34.85;;;20.95;;
47784;SDS011;35233;55.686;37.848;2023-09-08T13:03:20;33.13;;;21.55;;
47784;SDS011;35233;55.686;37.848;2023-09-08T13:05:45;31.95;;;20.38;;
47784;SDS011;35233;55.686;37.848;2023-09-08T13:08:11;34.40;;;21.48;;
47784;SDS011;35233;55.686;37.848;2023-09-08T13:10:36;34.70;;;20.00;;
47784;SDS011;35233;55.686;37.848;2023-09-08T13:13:02;30.48;;;19.33;;
47784;SDS011;35233;55.686;37.848;2023-09-08T13:15:29;29.00;;;18.05;;
47784;SDS011;35233;55.686;37.848;2023-09-08T13:17:55;28.40;;;19.02;;
47784;SDS011;35233;55.686;37.848;2023-09-08T13:20:21;30.15;;;19.40;;
47784;SDS011;35233;55.686;37.848;2023-09-08T13:22:47;28.27;;;17.85;;
47784;SDS011;35233;55.686;37.848;2023-09-08T13:25:12;31.30;;;17.65;;
47784;SDS011;35233;55.686;37.848;2023-09-08T13:27:40;23.95;;;16.98;;
47784;SDS011;35233;55.686;37.848;2023-09-08T13:30:08;26.63;;;16.30;;
47784;SDS011;35233;55.686;37.848;2023-09-08T13:32:34;24.13;;;17.13;;
47784;SDS011;35233;55.686;37.848;2023-09-08T13:35:00;24.55;;;15.63;;
47784;SDS011;35233;55.686;37.848;2023-09-08T13:37:25;25.38;;;16.75;;
47784;SDS011;35233;55.686;37.848;2023-09-08T13:39:51;25.35;;;16.58;;
47784;SDS011;35233;55.686;37.848;2023-09-08T13:42:16;24.33;;;15.80;;
47784;SDS011;35233;55.686;37.848;2023-09-08T13:44:42;21.00;;;15.75;;
47784;SDS011;35233;55.686;37.848;2023-09-08T13:47:07;22.98;;;16.25;;
47784;SDS011;35233;55.686;37.848;2023-09-08T13:49:33;24.38;;;16.08;;
47784;SDS011;35233;55.686;37.848;2023-09-08T13:51:59;23.23;;;16.08;;
47784;SDS011;35233;55.686;37.848;2023-09-08T13:54:25;24.27;;;19.77;;
47784;SDS011;35233;55.686;37.848;2023-09-08T13:57:01;31.90;;;22.98;;
47784;SDS011;35233;55.686;37.848;2023-09-08T13:59:29;33.72;;;23.42;;
47784;SDS011;35233;55.686;37.848;2023-09-08T14:01:55;32.60;;;24.25;;
47784;SDS011;35233;55.686;37.848;2023-09-08T14:04:22;33.05;;;22.52;;
47784;SDS011;35233;55.686;37.848;2023-09-08T14:06:49;31.55;;;23.67;;
47784;SDS011;35233;55.686;37.848;2023-09-08T14:09:14;34.80;;;26.73;;
47784;SDS011;35233;55.686;37.848;2023-09-08T14:11:41;44.80;;;33.05;;
47784;SDS011;35233;55.686;37.848;2023-09-08T14:14:07;42.03;;;34.03;;
47784;SDS011;35233;55.686;37.848;2023-09-08T14:16:32;48.65;;;35.38;;
47784;SDS011;35233;55.686;37.848;2023-09-08T14:18:58;41.35;;;32.40;;
47784;SDS011;35233;55.686;37.848;2023-09-08T14:21:23;44.97;;;34.80;;
47784;SDS011;35233;55.686;37.848;2023-09-08T14:23:49;42.22;;;33.55;;
47784;SDS011;35233;55.686;37.848;2023-09-08T14:26:14;43.10;;;33.42;;